createdAt,value
2022-10-03T00:04:26.738Z,101578.97
2022-10-03T00:08:46.970Z,101596.19
2022-10-03T00:13:12.217Z,101608.19
2022-10-03T00:17:32.196Z,101592.34
2022-10-03T00:21:50.299Z,101610.19
2022-10-03T00:26:30.588Z,101602.06
2022-10-03T00:30:49.931Z,101609.97
2022-10-03T00:34:51.333Z,101611.81
2022-10-03T00:39:20.742Z,101624.16
2022-10-03T00:43:43.523Z,101622.47
2022-10-03T00:48:14.915Z,101619.63
2022-10-03T00:52:38.411Z,101628.50
2022-10-03T00:57:06.789Z,101634.63
2022-10-03T01:01:31.457Z,101636.66
2022-10-03T01:05:48.922Z,101636.81
2022-10-03T01:10:09.512Z,101642.22
2022-10-03T01:14:49.155Z,101643.25
2022-10-03T01:19:36.278Z,101646.88
2022-10-03T01:23:52.909Z,101645.03
2022-10-03T01:28:35.049Z,101656.53
2022-10-03T01:32:48.756Z,101654.47
2022-10-03T01:37:26.863Z,101665.00
2022-10-03T01:41:35.417Z,101666.78
2022-10-03T01:46:00.560Z,101675.72
2022-10-03T01:50:19.589Z,101687.41
2022-10-03T01:54:40.147Z,101673.09
2022-10-03T01:59:00.431Z,101671.88
2022-10-03T02:03:20.272Z,101681.75
2022-10-03T02:07:35.112Z,101697.03
2022-10-03T02:11:44.579Z,101696.13
2022-10-03T02:16:08.922Z,101694.25
2022-10-03T02:20:23.647Z,101700.56
2022-10-03T02:24:37.080Z,101692.63
2022-10-03T02:29:16.002Z,101710.34
2022-10-03T02:33:29.365Z,101706.13
2022-10-03T02:37:36.626Z,101706.97
2022-10-03T02:42:03.743Z,101708.75
2022-10-03T02:46:26.369Z,101714.78
2022-10-03T02:51:17.110Z,101732.66
2022-10-03T02:55:49.276Z,101732.88
2022-10-03T03:00:15.188Z,101730.09
2022-10-03T03:04:42.109Z,101746.31
2022-10-03T03:08:58.112Z,101747.09
2022-10-03T03:13:46.526Z,101751.47
2022-10-03T03:18:04.512Z,101749.59
2022-10-03T03:22:28.264Z,101753.94
2022-10-03T03:26:49.257Z,101756.78
2022-10-03T03:31:02.158Z,101763.13
2022-10-03T03:35:15.939Z,101763.13
2022-10-03T03:39:45.074Z,101774.78
2022-10-03T03:44:06.773Z,101775.63
2022-10-03T03:48:39.605Z,101785.28
2022-10-03T03:52:43.856Z,101783.50
2022-10-03T03:56:50.920Z,101784.44
2022-10-03T04:01:28.080Z,101797.63
2022-10-03T04:05:46.648Z,101792.44
2022-10-03T04:10:06.830Z,101787.13
2022-10-03T04:14:29.763Z,101796.84
2022-10-03T04:18:58.977Z,101793.28
2022-10-03T04:23:18.516Z,101802.22
2022-10-03T04:27:57.401Z,101796.94
2022-10-03T04:32:21.327Z,101810.13
2022-10-03T04:36:56.967Z,101805.75
2022-10-03T04:41:27.614Z,101804.00
2022-10-03T04:45:41.761Z,101814.84
2022-10-03T04:50:00.632Z,101821.09
2022-10-03T04:54:17.752Z,101829.22
2022-10-03T04:58:28.147Z,101824.66
2022-10-03T05:02:52.415Z,101828.25
2022-10-03T05:06:53.771Z,101834.50
2022-10-03T05:11:18.888Z,101835.41
2022-10-03T05:15:30.276Z,101834.47
2022-10-03T05:20:03.736Z,101846.91
2022-10-03T05:24:19.387Z,101850.50
2022-10-03T05:28:45.264Z,101850.50
2022-10-03T05:33:10.281Z,101855.72
2022-10-03T05:37:35.089Z,101848.56
2022-10-03T05:41:38.574Z,101857.63
2022-10-03T05:45:50.836Z,101855.81
2022-10-03T05:50:10.971Z,101853.13
2022-10-03T05:54:40.474Z,101858.53
2022-10-03T05:58:56.921Z,101866.53
2022-10-03T06:03:37.179Z,101874.41
2022-10-03T06:08:19.957Z,101884.31
2022-10-03T06:13:02.188Z,101885.91
2022-10-03T06:17:28.991Z,101890.25
2022-10-03T06:21:42.426Z,101888.47
2022-10-03T06:25:54.841Z,101899.16
2022-10-03T06:29:56.580Z,101906.19
2022-10-03T06:34:19.421Z,101907.09
2022-10-03T06:38:30.005Z,101918.75
2022-10-03T06:42:50.127Z,101924.97
2022-10-03T06:47:09.940Z,101926.78
2022-10-03T06:51:32.808Z,101915.13
2022-10-03T06:56:01.378Z,101927.59
2022-10-03T07:00:20.417Z,101921.34
2022-10-03T07:05:07.412Z,101924.88
2022-10-03T07:09:30.497Z,101920.41
2022-10-03T07:14:12.056Z,101921.13
2022-10-03T07:18:19.434Z,101926.16
2022-10-03T07:22:48.854Z,101932.53
2022-10-03T07:27:19.204Z,101932.84
2022-10-03T07:31:32.808Z,101937.47
2022-10-03T07:36:02.063Z,101946.25
2022-10-03T07:40:10.419Z,101936.63
2022-10-03T07:44:24.692Z,101954.63
2022-10-03T07:48:37.822Z,101946.78
2022-10-03T07:53:36.232Z,101958.94
2022-10-03T07:58:05.437Z,101954.56
2022-10-03T08:02:28.720Z,101969.59
2022-10-03T08:06:43.987Z,101972.28
2022-10-03T08:11:04.092Z,101979.47
2022-10-03T08:15:25.918Z,101983.00
2022-10-03T08:20:05.665Z,101983.41
2022-10-03T08:24:37.964Z,101981.91
2022-10-03T08:29:02.342Z,101983.00
2022-10-03T08:33:26.663Z,101985.75
2022-10-03T08:37:55.972Z,101990.66
2022-10-03T08:42:09.999Z,101989.75
2022-10-03T08:46:44.762Z,101992.25
2022-10-03T08:51:05.573Z,102005.19
2022-10-03T08:55:42.490Z,101996.31
2022-10-03T09:00:08.853Z,102011.97
2022-10-03T09:04:50.220Z,102008.78
2022-10-03T09:09:16.703Z,102011.75
2022-10-03T09:13:45.929Z,102007.63
2022-10-03T09:18:04.308Z,102014.56
2022-10-03T09:22:31.822Z,102004.34
2022-10-03T09:27:04.324Z,102004.19
2022-10-03T09:31:23.958Z,102021.41
2022-10-03T09:36:13.073Z,102023.63
2022-10-03T09:40:35.720Z,102017.50
2022-10-03T09:45:04.391Z,102021.06
2022-10-03T09:49:18.048Z,102020.03
2022-10-03T09:53:48.576Z,102019.00
2022-10-03T09:57:55.811Z,102021.81
2022-10-03T10:02:15.596Z,102026.06
2022-10-03T10:07:01.085Z,102027.50
2022-10-03T10:11:36.315Z,102031.50
2022-10-03T10:15:59.600Z,102024.06
2022-10-03T10:20:25.046Z,102030.69
2022-10-03T10:25:03.799Z,102021.00
2022-10-03T10:29:26.765Z,102017.03
2022-10-03T10:34:03.190Z,102023.22
2022-10-03T10:38:34.312Z,102027.13
2022-10-03T10:43:06.894Z,102021.28
2022-10-03T10:47:27.435Z,102023.66
2022-10-03T10:51:50.234Z,102024.78
2022-10-03T10:56:28.876Z,102012.16
2022-10-03T11:01:07.512Z,102014.94
2022-10-03T11:05:41.282Z,102025.31
2022-10-03T11:10:00.663Z,102020.28
2022-10-03T11:14:20.688Z,102018.69
2022-10-03T11:18:52.479Z,102023.53
2022-10-03T11:23:16.726Z,102026.94
2022-10-03T11:27:44.269Z,102026.78
2022-10-03T11:32:24.631Z,102019.09
2022-10-03T11:36:56.271Z,102025.66
2022-10-03T11:41:35.115Z,102039.00
2022-10-03T11:45:46.491Z,102028.59
2022-10-03T11:50:14.004Z,102033.03
2022-10-03T11:54:34.199Z,102024.41
2022-10-03T11:59:08.467Z,102034.00
2022-10-03T12:03:23.708Z,102027.16
2022-10-03T12:08:05.082Z,102030.63
2022-10-03T12:12:28.179Z,102032.78
2022-10-03T12:16:41.791Z,102033.25
2022-10-03T12:20:58.385Z,102037.19
2022-10-03T12:25:18.160Z,102034.03
2022-10-03T12:29:21.810Z,102041.88
2022-10-03T12:34:00.592Z,102034.13
2022-10-03T12:38:15.064Z,102038.59
2022-10-03T12:42:34.059Z,102036.97
2022-10-03T12:46:43.288Z,102032.13
2022-10-03T12:50:55.176Z,102020.53
2022-10-03T12:55:30.996Z,102027.75
2022-10-03T12:59:42.207Z,102026.75
2022-10-03T13:03:55.045Z,102046.16
2022-10-03T13:08:03.315Z,102050.09
2022-10-03T13:12:34.207Z,102036.69
2022-10-03T13:16:50.240Z,102038.84
2022-10-03T13:20:57.488Z,102037.63
2022-10-03T13:25:10.903Z,102032.56
2022-10-03T13:29:25.447Z,102030.47
2022-10-03T13:33:32.236Z,102020.53
2022-10-03T13:37:59.797Z,102029.66
2022-10-03T13:42:34.740Z,102017.22
2022-10-03T13:47:03.164Z,102015.84
2022-10-03T13:51:20.420Z,102016.19
2022-10-03T13:55:57.495Z,102011.81
2022-10-03T14:00:16.035Z,102002.53
2022-10-03T14:04:41.612Z,102010.63
2022-10-03T14:08:50.328Z,102008.00
2022-10-03T14:13:12.127Z,102011.72
2022-10-03T14:17:25.760Z,102012.50
2022-10-03T14:21:52.642Z,102010.06
2022-10-03T14:26:02.699Z,102003.63
2022-10-03T14:30:17.836Z,102008.00
2022-10-03T14:35:04.673Z,102003.38
2022-10-03T14:39:17.829Z,102009.06
2022-10-03T14:43:35.793Z,102008.81
2022-10-03T14:47:43.579Z,102001.66
2022-10-03T14:51:54.202Z,102000.00
2022-10-03T14:55:58.574Z,101989.34
2022-10-03T15:00:00.448Z,101998.34
2022-10-03T15:04:06.213Z,101994.91
2022-10-03T15:08:16.023Z,101997.34
2022-10-03T15:12:24.507Z,101999.72
2022-10-03T15:16:26.552Z,102003.16
2022-10-03T15:20:34.864Z,101998.91
2022-10-03T15:24:36.695Z,102000.59
2022-10-03T15:28:47.292Z,101998.06
2022-10-03T15:32:50.867Z,102003.75
2022-10-03T15:37:00.394Z,101999.38
2022-10-03T15:41:18.804Z,102010.53
2022-10-03T15:45:29.330Z,102005.97
2022-10-03T15:49:48.673Z,102002.69
2022-10-03T15:53:53.229Z,101999.97
2022-10-03T15:58:01.444Z,102000.16
2022-10-03T16:02:19.127Z,101991.25
2022-10-03T16:06:26.313Z,101989.53
2022-10-03T16:10:39.298Z,101994.06
2022-10-03T16:14:45.885Z,101989.56
2022-10-03T16:18:50.902Z,101986.00
2022-10-03T16:22:57.183Z,101982.63
2022-10-03T16:27:14.348Z,101977.56
2022-10-03T16:31:21.759Z,101974.91
2022-10-03T16:35:32.072Z,101976.78
2022-10-03T16:39:36.376Z,101975.84
2022-10-03T16:43:38.162Z,101975.00
2022-10-03T16:47:40.592Z,101980.13
2022-10-03T16:51:46.096Z,101971.09
2022-10-03T16:55:57.842Z,101977.09
2022-10-03T17:00:07.797Z,101978.28
2022-10-03T17:04:24.502Z,101978.41
2022-10-03T17:08:41.659Z,101970.94
2022-10-03T17:12:52.230Z,101977.59
2022-10-03T17:17:02.919Z,101968.84
2022-10-03T17:21:16.183Z,101978.41
2022-10-03T17:25:18.280Z,101974.91
2022-10-03T17:29:35.532Z,101982.97
2022-10-03T17:33:48.596Z,101984.97
2022-10-03T17:43:03.997Z,101988.09
2022-10-03T17:47:12.787Z,101989.00
2022-10-03T17:51:33.786Z,101989.13
2022-10-03T17:55:41.138Z,101988.41
2022-10-03T18:00:03.296Z,101993.72
2022-10-03T18:04:15.886Z,101991.06
2022-10-03T18:08:29.631Z,101991.28
2022-10-03T18:12:38.362Z,101992.06
2022-10-03T18:17:02.793Z,101991.13
2022-10-03T18:21:28.712Z,101992.84
2022-10-03T18:26:19.910Z,101986.50
2022-10-03T18:30:33.930Z,101997.19
2022-10-03T18:34:52.819Z,102000.66
2022-10-03T18:38:59.724Z,102000.09
2022-10-03T18:43:05.091Z,102004.41
2022-10-03T18:47:26.941Z,101998.25
2022-10-03T18:51:35.453Z,101990.84
2022-10-03T18:55:44.320Z,101982.06
2022-10-03T18:59:56.685Z,101989.19
2022-10-03T19:04:07.656Z,101993.50
2022-10-03T19:08:22.075Z,101988.06
2022-10-03T19:12:25.361Z,101989.91
2022-10-03T19:16:43.045Z,101994.22
2022-10-03T19:20:46.833Z,101987.22
2022-10-03T19:24:59.073Z,101992.56
2022-10-03T19:29:08.243Z,101998.81
2022-10-03T19:33:26.194Z,101989.25
2022-10-03T19:37:45.251Z,101999.72
2022-10-03T19:41:52.342Z,101998.13
2022-10-03T19:46:09.016Z,102003.50
2022-10-03T19:50:20.450Z,102007.00
2022-10-03T19:54:43.442Z,102014.44
2022-10-03T19:58:47.827Z,101999.38
2022-10-03T20:03:06.424Z,102009.88
2022-10-03T20:07:15.468Z,102004.50
2022-10-03T20:11:46.748Z,102011.78
2022-10-03T20:15:51.765Z,102003.06
2022-10-03T20:20:02.294Z,101998.66
2022-10-03T20:24:19.913Z,101998.75
2022-10-03T20:28:42.739Z,102004.06
2022-10-03T20:32:46.235Z,102007.91
2022-10-03T20:36:53.580Z,102005.31
2022-10-03T20:41:09.958Z,102009.84
2022-10-03T20:45:20.226Z,102003.72
2022-10-03T20:49:32.383Z,102003.72
2022-10-03T20:53:34.278Z,102004.59
2022-10-03T20:57:41.347Z,102006.56
2022-10-03T21:01:45.621Z,102007.34
2022-10-03T21:05:51.643Z,102009.06
2022-10-03T21:10:29.532Z,102009.13
2022-10-03T21:14:33.825Z,102011.81
2022-10-03T21:18:40.867Z,102014.47
2022-10-03T21:22:43.628Z,102007.28
2022-10-03T21:26:55.762Z,102008.22
2022-10-03T21:31:03.220Z,102006.56
2022-10-03T21:35:26.563Z,102000.59
2022-10-03T21:39:41.437Z,101991.69
2022-10-03T21:43:59.498Z,102004.16
2022-10-03T21:48:14.721Z,101996.09
2022-10-03T21:52:29.472Z,101995.53
2022-10-03T21:56:38.686Z,102001.69
2022-10-03T22:00:55.449Z,101996.53
2022-10-03T22:05:21.804Z,101996.47
2022-10-03T22:09:23.286Z,102000.00
2022-10-03T22:13:30.320Z,101992.06
2022-10-03T22:18:02.978Z,101998.28
2022-10-03T22:22:19.343Z,101990.22
2022-10-03T22:26:35.360Z,101986.69
2022-10-03T22:30:44.719Z,101995.72
2022-10-03T22:35:04.642Z,101984.91
2022-10-03T22:39:11.991Z,101990.38
2022-10-03T22:43:15.363Z,101991.25
2022-10-03T22:47:24.915Z,101985.81
2022-10-03T22:51:27.245Z,101987.50
2022-10-03T22:55:30.378Z,101986.63
2022-10-03T22:59:37.811Z,101976.16
2022-10-03T23:03:39.293Z,101986.84
2022-10-03T23:08:11.020Z,101986.06
2022-10-03T23:12:13.906Z,101992.16
2022-10-03T23:16:43.435Z,101987.00
2022-10-03T23:21:10.540Z,101993.09
2022-10-03T23:25:14.733Z,101990.56
2022-10-03T23:29:17.836Z,101988.78
2022-10-03T23:33:32.169Z,101991.44
2022-10-03T23:37:39.453Z,101998.53
2022-10-03T23:41:44.059Z,101995.78
2022-10-03T23:45:47.916Z,101992.22
2022-10-03T23:49:50.920Z,101990.25
2022-10-03T23:54:03.792Z,101993.16
2022-10-03T23:58:19.079Z,101988.50
